createdAt,value
2022-08-08T00:00:54.071Z,5.05
2022-08-08T00:02:57.811Z,5.25
2022-08-08T00:05:44.144Z,4.72
2022-08-08T00:08:29.476Z,5.07
2022-08-08T00:11:13.273Z,4.97
2022-08-08T00:14:16.953Z,5.22
2022-08-08T00:16:44.001Z,4.95
2022-08-08T00:19:19.697Z,5.00
2022-08-08T00:21:52.378Z,4.97
2022-08-08T00:24:29.890Z,6.10
2022-08-08T00:27:06.117Z,5.60
2022-08-08T00:29:46.541Z,4.60
2022-08-08T00:32:34.565Z,4.85
2022-08-08T00:35:34.451Z,4.82
2022-08-08T00:38:51.817Z,5.00
2022-08-08T00:42:08.098Z,5.10
2022-08-08T00:44:47.285Z,4.88
2022-08-08T00:48:04.902Z,4.97
2022-08-08T00:51:16.129Z,5.65
2022-08-08T00:54:15.393Z,5.63
2022-08-08T00:57:34.488Z,5.18
2022-08-08T01:00:13.600Z,5.25
2022-08-08T01:04:01.282Z,5.35
2022-08-08T01:06:42.458Z,6.07
2022-08-08T01:09:40.966Z,5.22
2022-08-08T01:12:43.160Z,5.38
2022-08-08T01:15:53.465Z,5.93
2022-08-08T01:19:11.753Z,5.90
2022-08-08T01:22:12.046Z,5.55
2022-08-08T01:25:05.118Z,6.15
2022-08-08T01:28:06.651Z,5.45
2022-08-08T01:32:05.565Z,5.18
2022-08-08T01:35:00.642Z,5.38
2022-08-08T01:38:10.128Z,5.60
2022-08-08T01:40:46.472Z,5.00
2022-08-08T01:43:34.810Z,5.47
2022-08-08T01:46:27.094Z,5.35
2022-08-08T01:49:03.011Z,5.97
2022-08-08T01:52:47.095Z,5.40
2022-08-08T01:55:46.272Z,6.18
2022-08-08T01:58:11.054Z,6.60
2022-08-08T02:00:48.534Z,6.68
2022-08-08T02:03:57.314Z,6.00
2022-08-08T02:06:43.254Z,6.32
2022-08-08T02:10:02.598Z,6.45
2022-08-08T02:12:21.710Z,5.95
2022-08-08T02:15:00.105Z,5.88
2022-08-08T02:17:43.177Z,6.13
2022-08-08T02:21:00.752Z,6.93
2022-08-08T02:23:18.941Z,6.60
2022-08-08T02:26:00.385Z,7.30
2022-08-08T02:28:48.220Z,6.90
2022-08-08T02:31:58.184Z,6.85
2022-08-08T02:35:10.540Z,6.32
2022-08-08T02:37:57.047Z,7.50
2022-08-08T02:40:40.644Z,7.68
2022-08-08T02:44:42.850Z,7.22
2022-08-08T02:46:47.119Z,8.07
2022-08-08T02:49:57.637Z,8.20
2022-08-08T02:52:59.372Z,7.75
2022-08-08T02:56:08.567Z,9.77
2022-08-08T02:59:57.986Z,9.57
2022-08-08T03:03:01.409Z,9.77
2022-08-08T03:06:13.956Z,9.82
2022-08-08T03:09:41.606Z,10.57
2022-08-08T03:13:01.825Z,9.43
2022-08-08T03:16:05.539Z,9.25
2022-08-08T03:18:39.683Z,9.98
2022-08-08T03:21:10.038Z,11.10
2022-08-08T03:23:59.357Z,11.00
2022-08-08T03:26:40.076Z,11.10
2022-08-08T03:29:18.709Z,10.93
2022-08-08T03:32:08.612Z,11.43
2022-08-08T03:34:37.758Z,12.05
2022-08-08T03:38:00.095Z,12.82
2022-08-08T03:40:03.736Z,12.88
2022-08-08T03:42:32.503Z,12.48
2022-08-08T03:45:02.258Z,11.60
2022-08-08T03:47:58.037Z,12.70
2022-08-08T03:50:27.689Z,12.65
2022-08-08T03:52:56.908Z,13.73
2022-08-08T03:55:57.456Z,12.55
2022-08-08T03:58:34.783Z,11.93
2022-08-08T04:01:24.479Z,12.43
2022-08-08T04:03:58.088Z,12.00
2022-08-08T04:06:29.320Z,12.80
2022-08-08T04:09:08.833Z,12.73
2022-08-08T04:11:57.952Z,12.85
2022-08-08T04:14:35.835Z,11.85
2022-08-08T04:17:07.061Z,14.50
2022-08-08T04:19:51.895Z,13.45
2022-08-08T04:22:24.123Z,14.27
2022-08-08T04:24:57.579Z,14.43
2022-08-08T04:28:03.646Z,13.10
2022-08-08T04:30:17.814Z,13.10
2022-08-08T04:32:49.789Z,12.63
2022-08-08T04:35:22.328Z,13.50
2022-08-08T04:37:51.078Z,12.38
2022-08-08T04:40:19.834Z,12.57
2022-08-08T04:42:56.743Z,13.38
2022-08-08T04:45:26.272Z,11.68
2022-08-08T04:47:54.629Z,12.75
2022-08-08T04:50:24.727Z,13.38
2022-08-08T04:53:00.891Z,14.70
2022-08-08T04:55:46.971Z,12.73
2022-08-08T04:58:18.081Z,12.63
2022-08-08T05:00:47.634Z,12.05
2022-08-08T05:03:18.985Z,12.02
2022-08-08T05:06:12.953Z,11.30
2022-08-08T05:08:51.471Z,11.63
2022-08-08T05:11:23.753Z,12.02
2022-08-08T05:13:57.485Z,11.00
2022-08-08T05:16:51.431Z,11.23
2022-08-08T05:20:10.852Z,11.02
2022-08-08T05:22:03.373Z,10.15
2022-08-08T05:24:32.276Z,11.25
2022-08-08T05:27:00.306Z,10.85
2022-08-08T05:29:30.007Z,10.52
2022-08-08T05:32:03.533Z,9.35
2022-08-08T05:34:37.547Z,10.77
2022-08-08T05:37:16.042Z,10.05
2022-08-08T05:39:52.574Z,9.20
2022-08-08T05:42:25.927Z,10.35
2022-08-08T05:45:00.662Z,9.90
2022-08-08T05:47:41.765Z,10.45
2022-08-08T05:50:29.098Z,9.93
2022-08-08T05:52:57.797Z,9.15
2022-08-08T05:56:10.179Z,8.57
2022-08-08T05:58:36.021Z,9.10
2022-08-08T06:01:06.931Z,10.00
2022-08-08T06:03:42.087Z,9.40
2022-08-08T06:06:10.496Z,10.52
2022-08-08T06:08:54.967Z,10.05
2022-08-08T06:11:32.575Z,9.88
2022-08-08T06:14:07.031Z,9.48
2022-08-08T06:16:43.644Z,9.02
2022-08-08T06:19:16.808Z,9.32
2022-08-08T06:21:56.884Z,9.27
2022-08-08T06:24:30.275Z,10.02
2022-08-08T06:27:05.541Z,9.85
2022-08-08T06:29:59.463Z,9.52
2022-08-08T06:32:31.263Z,9.30
2022-08-08T06:36:04.797Z,8.55
2022-08-08T06:37:55.819Z,8.50
2022-08-08T06:40:27.010Z,8.43
2022-08-08T06:42:58.537Z,8.57
2022-08-08T06:45:28.374Z,8.43
2022-08-08T06:48:01.733Z,8.20
2022-08-08T06:50:33.688Z,8.50
2022-08-08T06:53:13.907Z,7.95
2022-08-08T06:55:46.872Z,8.43
2022-08-08T06:58:15.798Z,8.27
2022-08-08T07:00:50.728Z,7.80
2022-08-08T07:04:35.866Z,7.88
2022-08-08T07:06:24.160Z,7.05
2022-08-08T07:08:59.354Z,8.10
2022-08-08T07:11:51.166Z,6.93
2022-08-08T07:14:27.861Z,7.65
2022-08-08T07:17:09.341Z,7.80
2022-08-08T07:19:51.996Z,7.38
2022-08-08T07:22:34.609Z,7.40
2022-08-08T07:25:06.698Z,7.65
2022-08-08T07:28:02.186Z,7.18
2022-08-08T07:30:27.056Z,7.32
2022-08-08T07:32:59.611Z,7.32
2022-08-08T07:35:31.170Z,7.78
2022-08-08T07:38:09.888Z,7.80
2022-08-08T07:40:48.377Z,7.47
2022-08-08T07:43:35.285Z,6.80
2022-08-08T07:46:23.298Z,7.30
2022-08-08T07:48:55.201Z,6.65
2022-08-08T07:51:44.747Z,6.72
2022-08-08T07:54:27.137Z,7.15
2022-08-08T07:57:04.288Z,6.07
2022-08-08T07:59:48.800Z,6.55
2022-08-08T08:02:35.444Z,5.82
2022-08-08T08:05:14.848Z,5.70
2022-08-08T08:07:53.187Z,5.20
2022-08-08T08:10:30.593Z,5.50
2022-08-08T08:13:25.547Z,5.45
2022-08-08T08:16:12.319Z,5.30
2022-08-08T08:18:55.558Z,5.13
2022-08-08T08:21:44.421Z,4.80
2022-08-08T08:24:16.353Z,5.20
2022-08-08T08:26:52.747Z,5.18
2022-08-08T08:29:24.128Z,5.28
2022-08-08T08:31:57.664Z,4.57
2022-08-08T08:34:32.804Z,5.03
2022-08-08T08:37:03.354Z,3.80
2022-08-08T08:39:59.363Z,4.50
2022-08-08T08:42:35.338Z,4.20
2022-08-08T08:45:21.161Z,4.50
2022-08-08T08:47:54.445Z,3.80
2022-08-08T08:50:34.029Z,3.60
2022-08-08T08:53:27.787Z,4.38
2022-08-08T08:56:02.317Z,4.50
2022-08-08T08:58:35.547Z,4.13
2022-08-08T09:01:10.190Z,3.97
2022-08-08T09:03:47.296Z,4.05
2022-08-08T09:06:28.583Z,4.53
2022-08-08T09:09:07.457Z,3.60
2022-08-08T09:12:06.110Z,3.78
2022-08-08T09:14:34.628Z,4.18
2022-08-08T09:17:11.571Z,4.43
2022-08-08T09:21:56.514Z,3.28
2022-08-08T09:22:31.385Z,4.20
2022-08-08T09:24:59.583Z,4.95
2022-08-08T09:27:55.654Z,4.05
2022-08-08T09:30:22.168Z,4.60
2022-08-08T09:33:12.001Z,3.97
2022-08-08T09:35:50.131Z,3.90
2022-08-08T09:38:32.643Z,4.03
2022-08-08T09:41:06.372Z,3.85
2022-08-08T09:44:06.227Z,3.83
2022-08-08T09:46:45.527Z,3.38
2022-08-08T09:49:42.249Z,3.85
2022-08-08T09:52:57.516Z,3.45
2022-08-08T09:55:09.175Z,3.85
2022-08-08T09:57:55.464Z,3.78
2022-08-08T10:00:53.224Z,4.60
2022-08-08T10:03:19.825Z,3.95
2022-08-08T10:05:48.496Z,4.15
2022-08-08T10:08:17.927Z,3.50
2022-08-08T10:10:51.356Z,2.53
2022-08-08T10:13:26.082Z,3.20
2022-08-08T10:16:03.545Z,2.88
2022-08-08T10:18:34.367Z,3.35
2022-08-08T10:21:08.241Z,3.13
2022-08-08T10:23:57.793Z,3.03
2022-08-08T10:26:57.216Z,2.60
2022-08-08T10:29:24.852Z,2.35
2022-08-08T10:32:16.078Z,2.60
2022-08-08T10:34:56.849Z,2.47
2022-08-08T10:37:30.399Z,2.80
2022-08-08T10:40:02.454Z,2.13
2022-08-08T10:42:37.675Z,2.45
2022-08-08T10:45:16.148Z,2.45
2022-08-08T10:47:55.270Z,2.60
2022-08-08T10:50:32.120Z,2.38
2022-08-08T10:53:07.546Z,2.25
2022-08-08T10:55:46.721Z,2.13
2022-08-08T10:58:15.534Z,2.40
2022-08-08T11:00:53.427Z,2.47
2022-08-08T11:04:00.529Z,1.98
2022-08-08T11:06:31.694Z,2.03
2022-08-08T11:09:14.988Z,2.38
2022-08-08T11:12:05.832Z,2.22
2022-08-08T11:14:36.697Z,2.50
2022-08-08T11:17:07.677Z,1.80
2022-08-08T11:19:46.610Z,2.08
2022-08-08T11:22:29.558Z,2.03
2022-08-08T11:25:02.819Z,1.88
2022-08-08T11:27:44.544Z,2.15
2022-08-08T11:30:20.152Z,2.20
2022-08-08T11:32:50.472Z,2.33
2022-08-08T11:35:37.610Z,2.10
2022-08-08T11:38:36.887Z,2.15
2022-08-08T11:41:02.972Z,1.90
2022-08-08T11:43:39.233Z,2.35
2022-08-08T11:46:13.523Z,1.90
2022-08-08T11:48:47.936Z,1.67
2022-08-08T11:51:38.818Z,2.72
2022-08-08T11:54:09.696Z,2.70
2022-08-08T11:56:57.950Z,2.15
2022-08-08T11:59:57.830Z,2.05
2022-08-08T12:02:33.044Z,2.63
2022-08-08T12:05:13.556Z,3.25
2022-08-08T12:07:51.903Z,2.60
2022-08-08T12:10:21.971Z,2.53
2022-08-08T12:12:51.743Z,3.20
2022-08-08T12:15:30.559Z,2.65
2022-08-08T12:18:24.652Z,2.63
2022-08-08T12:20:54.762Z,2.25
2022-08-08T12:23:42.736Z,2.13
2022-08-08T12:26:17.180Z,2.60
2022-08-08T12:28:57.187Z,2.55
2022-08-08T12:31:38.718Z,2.25
2022-08-08T12:34:20.520Z,2.40
2022-08-08T12:37:08.299Z,2.53
2022-08-08T12:39:59.963Z,2.80
2022-08-08T12:42:27.297Z,2.45
2022-08-08T12:45:07.300Z,2.53
2022-08-08T12:48:10.022Z,2.30
2022-08-08T12:50:51.090Z,2.47
2022-08-08T12:53:36.394Z,2.55
2022-08-08T12:56:19.133Z,2.60
2022-08-08T12:58:54.400Z,2.40
2022-08-08T13:01:36.841Z,2.40
2022-08-08T13:04:19.229Z,2.60
2022-08-08T13:07:04.001Z,2.00
2022-08-08T13:09:43.211Z,2.10
2022-08-08T13:12:30.650Z,2.00
2022-08-08T13:15:02.234Z,2.30
2022-08-08T13:17:53.869Z,1.88
2022-08-08T13:20:21.951Z,1.50
2022-08-08T13:22:55.942Z,2.03
2022-08-08T13:25:36.867Z,2.22
2022-08-08T13:28:06.652Z,1.83
2022-08-08T13:30:35.197Z,2.20
2022-08-08T13:33:05.711Z,2.15
2022-08-08T13:35:38.965Z,2.20
2022-08-08T13:38:13.393Z,1.90
2022-08-08T13:40:45.072Z,2.08
2022-08-08T13:43:16.393Z,1.60
2022-08-08T13:45:47.419Z,1.50
2022-08-08T13:48:25.081Z,2.33
2022-08-08T13:51:24.576Z,2.55
2022-08-08T13:53:53.128Z,2.28
2022-08-08T13:56:31.213Z,2.30
2022-08-08T13:59:00.797Z,2.30
2022-08-08T14:01:42.187Z,2.30
2022-08-08T14:04:24.292Z,1.92
2022-08-08T14:06:59.454Z,1.95
2022-08-08T14:10:04.199Z,2.33
2022-08-08T14:12:28.072Z,1.73
2022-08-08T14:14:58.031Z,2.08
2022-08-08T14:17:57.609Z,2.25
2022-08-08T14:20:57.766Z,2.13
2022-08-08T14:23:10.192Z,2.38
2022-08-08T14:25:46.401Z,2.00
2022-08-08T14:28:23.555Z,2.47
2022-08-08T14:31:09.080Z,2.70
2022-08-08T14:33:37.731Z,2.78
2022-08-08T14:36:09.575Z,2.08
2022-08-08T14:38:52.432Z,2.58
2022-08-08T14:41:54.107Z,2.08
2022-08-08T14:44:17.049Z,1.80
2022-08-08T14:47:01.334Z,1.85
2022-08-08T14:49:37.787Z,1.83
2022-08-08T14:52:23.551Z,2.13
2022-08-08T14:54:51.641Z,2.13
2022-08-08T14:58:00.644Z,2.03
2022-08-08T15:00:10.979Z,2.50
2022-08-08T15:03:10.588Z,2.10
2022-08-08T15:05:43.032Z,1.88
2022-08-08T15:08:34.828Z,2.08
2022-08-08T15:11:09.174Z,1.95
2022-08-08T15:14:00.897Z,1.92
2022-08-08T15:16:29.015Z,1.60
2022-08-08T15:18:58.471Z,1.90
2022-08-08T15:21:27.774Z,1.83
2022-08-08T15:23:58.711Z,2.20
2022-08-08T15:26:28.955Z,2.22
2022-08-08T15:28:58.340Z,2.08
2022-08-08T15:32:03.230Z,2.58
2022-08-08T15:34:18.678Z,1.88
2022-08-08T15:36:58.798Z,2.03
2022-08-08T15:39:31.178Z,1.85
2022-08-08T15:41:59.754Z,2.00
2022-08-08T15:44:29.947Z,1.85
2022-08-08T15:46:59.714Z,2.05
2022-08-08T15:49:29.409Z,1.60
2022-08-08T15:51:57.852Z,1.95
2022-08-08T15:54:38.959Z,1.60
2022-08-08T15:57:09.357Z,1.80
2022-08-08T16:00:06.324Z,1.90
2022-08-08T16:02:31.091Z,1.50
2022-08-08T16:05:01.841Z,2.00
2022-08-08T16:07:51.000Z,1.88
2022-08-08T16:13:15.664Z,1.70
2022-08-08T16:13:27.254Z,2.08
2022-08-08T16:15:57.565Z,1.90
2022-08-08T16:18:28.588Z,2.10
2022-08-08T16:21:00.318Z,1.95
2022-08-08T16:23:31.838Z,1.80
2022-08-08T16:26:04.086Z,1.70
2022-08-08T16:28:35.952Z,1.70
2022-08-08T16:31:07.523Z,2.00
2022-08-08T16:33:39.417Z,1.92
2022-08-08T16:36:15.827Z,1.75
2022-08-08T16:38:53.763Z,2.00
2022-08-08T16:41:24.719Z,1.60
2022-08-08T16:43:57.615Z,1.73
2022-08-08T16:46:36.850Z,1.90
2022-08-08T16:49:12.304Z,1.88
2022-08-08T16:54:59.760Z,1.70
2022-08-08T16:55:22.598Z,1.85
2022-08-08T16:57:43.638Z,1.85
2022-08-08T17:00:09.283Z,1.88
2022-08-08T17:02:39.267Z,1.88
2022-08-08T17:05:10.094Z,2.13
2022-08-08T17:07:42.627Z,1.67
2022-08-08T17:10:11.572Z,2.10
2022-08-08T17:12:47.083Z,2.45
2022-08-08T17:15:23.121Z,1.90
2022-08-08T17:18:02.751Z,1.80
2022-08-08T17:20:32.879Z,1.52
2022-08-08T17:23:18.430Z,1.70
2022-08-08T17:25:58.120Z,1.77
2022-08-08T17:28:35.311Z,1.75
2022-08-08T17:31:43.662Z,1.80
2022-08-08T17:34:36.030Z,1.60
2022-08-08T17:36:55.531Z,1.45
2022-08-08T17:40:03.137Z,1.50
2022-08-08T17:42:19.154Z,1.52
2022-08-08T17:44:50.981Z,1.42
2022-08-08T17:47:27.314Z,1.67
2022-08-08T17:50:01.034Z,1.80
2022-08-08T17:52:34.143Z,1.80
2022-08-08T17:55:05.413Z,1.45
2022-08-08T17:57:37.721Z,1.70
2022-08-08T18:00:19.196Z,1.65
2022-08-08T18:02:52.403Z,1.60
2022-08-08T18:05:48.294Z,2.10
2022-08-08T18:08:37.585Z,1.63
2022-08-08T18:11:15.449Z,1.80
2022-08-08T18:13:45.322Z,1.33
2022-08-08T18:16:17.236Z,1.63
2022-08-08T18:18:53.715Z,1.50
2022-08-08T18:21:34.400Z,1.30
2022-08-08T18:24:18.793Z,1.67
2022-08-08T18:26:53.675Z,2.30
2022-08-08T18:29:33.318Z,2.65
2022-08-08T18:32:04.229Z,2.13
2022-08-08T18:34:33.798Z,1.92
2022-08-08T18:37:08.103Z,2.17
2022-08-08T18:39:38.264Z,1.60
2022-08-08T18:42:16.137Z,1.67
2022-08-08T18:44:55.111Z,1.83
2022-08-08T18:47:25.002Z,1.67
2022-08-08T18:49:58.744Z,1.60
2022-08-08T18:52:29.983Z,1.73
2022-08-08T18:55:00.258Z,1.73
2022-08-08T18:57:31.680Z,1.60
2022-08-08T19:00:10.620Z,1.77
2022-08-08T19:02:48.449Z,1.67
2022-08-08T19:05:30.686Z,1.42
2022-08-08T19:08:08.656Z,1.40
2022-08-08T19:10:41.345Z,1.30
2022-08-08T19:13:21.412Z,1.75
2022-08-08T19:15:51.885Z,1.63
2022-08-08T19:18:32.980Z,1.70
2022-08-08T19:21:29.060Z,1.75
2022-08-08T19:23:57.032Z,1.42
2022-08-08T19:26:30.036Z,2.05
2022-08-08T19:29:00.856Z,1.55
2022-08-08T19:31:31.698Z,1.63
2022-08-08T19:34:36.306Z,1.60
2022-08-08T19:36:55.217Z,1.33
2022-08-08T19:39:34.781Z,1.60
2022-08-08T19:42:04.853Z,1.40
2022-08-08T19:44:42.460Z,1.60
2022-08-08T19:47:12.468Z,1.40
2022-08-08T19:49:43.473Z,1.40
2022-08-08T19:52:35.525Z,1.65
2022-08-08T19:55:08.843Z,1.55
2022-08-08T19:57:37.973Z,1.27
2022-08-08T20:00:11.414Z,1.75
2022-08-08T20:02:58.517Z,1.55
2022-08-08T20:06:15.482Z,1.58
2022-08-08T20:08:28.949Z,1.33
2022-08-08T20:11:00.073Z,2.20
2022-08-08T20:14:13.882Z,1.52
2022-08-08T20:16:18.807Z,1.45
2022-08-08T20:18:52.628Z,1.48
2022-08-08T20:21:25.299Z,1.50
2022-08-08T20:23:58.230Z,1.75
2022-08-08T20:26:27.618Z,1.52
2022-08-08T20:29:01.918Z,1.77
2022-08-08T20:32:07.104Z,1.60
2022-08-08T20:34:28.736Z,1.27
2022-08-08T20:36:59.675Z,1.75
2022-08-08T20:39:39.388Z,1.30
2022-08-08T20:42:16.049Z,1.83
2022-08-08T20:44:44.286Z,1.50
2022-08-08T20:47:15.832Z,1.48
2022-08-08T20:49:57.547Z,1.70
2022-08-08T20:52:27.811Z,1.23
2022-08-08T20:54:56.427Z,1.60
2022-08-08T20:57:29.106Z,1.77
2022-08-08T20:59:57.313Z,1.65
2022-08-08T21:02:29.310Z,1.60
2022-08-08T21:05:01.749Z,1.90
2022-08-08T21:08:07.734Z,1.40
2022-08-08T21:10:20.850Z,2.03
2022-08-08T21:12:54.144Z,1.65
2022-08-08T21:16:05.266Z,1.67
2022-08-08T21:18:12.486Z,1.83
2022-08-08T21:20:42.606Z,1.58
2022-08-08T21:23:18.251Z,1.95
2022-08-08T21:25:48.986Z,1.73
2022-08-08T21:28:33.314Z,2.00
2022-08-08T21:31:21.772Z,1.70
2022-08-08T21:33:52.900Z,1.65
2022-08-08T21:36:28.673Z,2.00
2022-08-08T21:38:57.482Z,1.65
2022-08-08T21:41:38.544Z,2.00
2022-08-08T21:44:14.504Z,1.80
2022-08-08T21:48:06.283Z,1.60
2022-08-08T21:49:33.081Z,1.90
2022-08-08T21:54:17.556Z,1.70
2022-08-08T21:55:01.781Z,1.80
2022-08-08T21:57:42.578Z,1.67
2022-08-08T22:00:14.313Z,1.80
2022-08-08T22:02:43.227Z,1.55
2022-08-08T22:05:15.289Z,1.80
2022-08-08T22:07:44.279Z,1.95
2022-08-08T22:10:32.144Z,1.70
2022-08-08T22:13:18.425Z,1.70
2022-08-08T22:15:58.723Z,2.00
2022-08-08T22:18:29.593Z,1.80
2022-08-08T22:21:10.749Z,1.65
2022-08-08T22:23:51.469Z,1.58
2022-08-08T22:26:28.711Z,1.55
2022-08-08T22:29:04.259Z,1.60
2022-08-08T22:31:43.501Z,1.60
2022-08-08T22:34:27.148Z,1.50
2022-08-08T22:36:56.716Z,1.70
2022-08-08T22:39:39.218Z,1.65
2022-08-08T22:42:12.954Z,1.70
2022-08-08T22:44:41.128Z,1.75
2022-08-08T22:47:17.880Z,1.30
2022-08-08T22:49:54.131Z,1.73
2022-08-08T22:52:33.355Z,1.67
2022-08-08T22:55:05.006Z,1.75
2022-08-08T22:57:44.059Z,2.10
2022-08-08T23:00:18.352Z,1.80
2022-08-08T23:02:50.418Z,1.88
2022-08-08T23:05:21.242Z,1.73
2022-08-08T23:07:57.637Z,1.70
2022-08-08T23:10:27.643Z,1.80
2022-08-08T23:12:56.161Z,1.85
2022-08-08T23:16:37.577Z,1.70
2022-08-08T23:18:12.921Z,1.83
2022-08-08T23:20:43.202Z,1.88
2022-08-08T23:23:13.839Z,1.77
2022-08-08T23:25:48.291Z,2.10
2022-08-08T23:28:18.738Z,1.85
2022-08-08T23:30:48.007Z,1.98
2022-08-08T23:33:21.139Z,2.00
2022-08-08T23:36:07.891Z,2.15
2022-08-08T23:38:41.679Z,2.00
2022-08-08T23:41:24.688Z,2.10
2022-08-08T23:43:56.890Z,1.70
2022-08-08T23:49:03.019Z,1.83
2022-08-08T23:49:18.762Z,2.10
2022-08-08T23:52:05.355Z,2.28
2022-08-08T23:54:43.130Z,1.90
2022-08-08T23:57:27.699Z,2.40
